Time;durP1;ratioP1;P1;durP2;ratioP2;P2;SDS_P1;SDS_P2;PMS_P1;PMS_P2;Temp;Humidity;BMP_temperature;BMP_pressure;BME280_temperature;BME280_humidity;BME280_pressure;Samples;Min_cycle;Max_cycle;Signal;HPM_P1;HPM_P2
2022/12/10 00:02:37;;;;;;;;;;;;;;;12.33;60.20;99249.34;4992920;28;19917;-76
2022/12/10 00:05:22;;;;;;;;;;;;;;;12.71;59.07;99257.41;4981113;28;19922;-76
2022/12/10 00:08:06;;;;;;;;;;;;;;;12.53;58.57;99253.59;4993399;28;20395;-77
2022/12/10 00:10:51;;;;;;;;;;;;;;;12.79;57.07;99250.13;4991605;28;19918;-76
2022/12/10 00:13:36;;;;;;;;;;;;;;;12.17;57.18;99251.38;4993011;28;19918;-76
2022/12/10 00:16:22;;;;;;;;;;;;;;;11.70;58.45;99248.88;4979657;28;19917;-76
2022/12/10 00:19:06;;;;;;;;;;;;;;;11.74;59.58;99236.16;4981342;28;20314;-75
2022/12/10 00:21:51;;;;;;;;;;;;;;;11.29;59.62;99242.19;4992161;28;19918;-76
2022/12/10 00:24:35;;;;;;;;;;;;;;;11.25;60.69;99252.19;4968187;28;19922;-77
2022/12/10 00:27:20;;;;;;;;;;;;;;;11.12;61.13;99263.19;4965782;28;19922;-77
2022/12/10 00:30:04;;;;;;;;;;;;;;;11.32;61.63;99247.72;4985922;28;19918;-76
2022/12/10 00:32:49;;;;;;;;;;;;;;;11.58;61.84;99247.06;4989552;28;19918;-76
2022/12/10 00:35:36;;;;;;;;;;;;;;;11.23;59.78;99247.09;4989191;28;19917;-75
2022/12/10 00:38:20;;;;;;;;;;;;;;;11.01;61.36;99243.13;4980016;28;19918;-76
2022/12/10 00:41:06;;;;;;;;;;;;;;;11.22;61.83;99221.06;4996015;28;19971;-76
2022/12/10 00:43:51;;;;;;;;;;;;;;;11.38;59.92;99219.06;4990224;28;19918;-76
2022/12/10 00:46:35;;;;;;;;;;;;;;;11.74;61.01;99220.59;4981867;28;20404;-76
2022/12/10 00:49:22;;;;;;;;;;;;;;;11.59;60.63;99213.25;4972887;28;19918;-76
2022/12/10 00:52:07;;;;;;;;;;;;;;;11.80;61.68;99210.19;4981718;28;19918;-76
2022/12/10 00:54:52;;;;;;;;;;;;;;;11.96;59.24;99200.78;4996481;28;19918;-75
2022/12/10 00:57:36;;;;;;;;;;;;;;;11.75;58.62;99200.38;4984005;28;20405;-76
2022/12/10 01:00:21;;;;;;;;;;;;;;;11.36;59.19;99198.78;4996171;28;20290;-76
2022/12/10 01:03:05;;;;;;;;;;;;;;;11.19;59.81;99215.53;4989933;28;19918;-75
2022/12/10 01:05:50;;;;;;;;;;;;;;;11.13;60.39;99210.34;4978063;28;19921;-76
2022/12/10 01:08:34;;;;;;;;;;;;;;;11.22;60.95;99209.38;4976948;28;19918;-76
2022/12/10 01:11:20;;;;;;;;;;;;;;;11.40;60.90;99207.81;4985199;28;19918;-76
2022/12/10 01:14:06;;;;;;;;;;;;;;;12.07;64.43;99198.28;4995733;28;19917;-77
2022/12/10 01:16:53;;;;;;;;;;;;;;;12.90;59.65;99199.22;4975780;28;19918;-76
2022/12/10 01:19:38;;;;;;;;;;;;;;;12.09;57.35;99212.31;4996025;28;19943;-76
2022/12/10 01:22:22;;;;;;;;;;;;;;;11.72;58.09;99211.97;4987179;28;19918;-77
2022/12/10 01:25:07;;;;;;;;;;;;;;;11.46;59.50;99211.84;4995493;28;20329;-76
2022/12/10 01:27:52;;;;;;;;;;;;;;;11.29;59.79;99225.84;4985838;28;19918;-76
2022/12/10 01:30:37;;;;;;;;;;;;;;;11.12;59.89;99224.34;4995962;28;19922;-76
2022/12/10 01:33:21;;;;;;;;;;;;;;;11.13;60.44;99223.16;4995211;28;19918;-77
2022/12/10 01:36:08;;;;;;;;;;;;;;;10.99;60.52;99234.53;4995006;28;19918;-76
2022/12/10 01:38:54;;;;;;;;;;;;;;;10.84;60.66;99229.91;4973649;28;19922;-76
2022/12/10 01:41:40;;;;;;;;;;;;;;;10.81;61.16;99216.22;4993950;28;20310;-76
2022/12/10 01:44:24;;;;;;;;;;;;;;;11.63;66.67;99197.78;4990128;28;20294;-75
2022/12/10 01:47:09;;;;;;;;;;;;;;;13.33;61.96;99183.47;4992975;28;19918;-76
2022/12/10 01:49:54;;;;;;;;;;;;;;;13.73;60.28;99185.50;4973619;28;19918;-76
2022/12/10 01:52:39;;;;;;;;;;;;;;;13.14;53.79;99178.94;4995329;28;19918;-76
2022/12/10 01:55:41;;;;;;;;;;;;;;;12.48;54.72;99182.22;4984364;28;19917;-76
2022/12/10 01:58:26;;;;;;;;;;;;;;;12.07;55.58;99192.81;4988810;28;19922;-77
2022/12/10 02:01:16;;;;;;;;;;;;;;;11.50;56.96;99193.63;4988306;28;19918;-77
2022/12/10 02:04:06;;;;;;;;;;;;;;;11.51;56.43;99189.78;4983094;28;19917;-77
2022/12/10 02:06:56;;;;;;;;;;;;;;;11.24;57.47;99202.44;4981197;28;19922;-78
2022/12/10 02:09:50;;;;;;;;;;;;;;;10.83;58.64;99198.41;4976424;28;19917;-76
2022/12/10 02:12:43;;;;;;;;;;;;;;;10.78;59.15;99206.03;4976061;28;19918;-76
2022/12/10 02:15:31;;;;;;;;;;;;;;;10.68;59.97;99201.94;4966826;28;20295;-75
2022/12/10 02:18:35;;;;;;;;;;;;;;;10.72;59.66;99210.97;4980342;28;19918;-76
2022/12/10 02:21:23;;;;;;;;;;;;;;;10.69;59.20;99208.97;4974026;28;20390;-75
2022/12/10 02:24:11;;;;;;;;;;;;;;;10.75;59.83;99193.97;4973018;28;20303;-74
2022/12/10 02:27:01;;;;;;;;;;;;;;;10.57;60.06;99198.16;4970847;28;20319;-75
2022/12/10 02:29:48;;;;;;;;;;;;;;;10.48;60.48;99205.72;4982953;28;19919;-77
2022/12/10 02:32:36;;;;;;;;;;;;;;;10.50;60.05;99195.31;4979636;28;19918;-76
2022/12/10 02:35:28;;;;;;;;;;;;;;;10.41;60.20;99198.22;4986209;28;19918;-75
2022/12/10 02:38:18;;;;;;;;;;;;;;;10.30;60.77;99194.44;4980646;28;19917;-77
2022/12/10 02:41:05;;;;;;;;;;;;;;;10.35;60.59;99193.38;4984363;28;19918;-76
2022/12/10 02:43:52;;;;;;;;;;;;;;;10.31;60.86;99184.34;4976448;28;20306;-75
2022/12/10 02:46:38;;;;;;;;;;;;;;;10.35;60.88;99187.94;4980454;28;19926;-76
2022/12/10 02:49:25;;;;;;;;;;;;;;;10.41;60.38;99186.53;4994218;28;19918;-74
2022/12/10 02:52:12;;;;;;;;;;;;;;;10.50;61.43;99181.72;4993306;28;19918;-76
2022/12/10 02:55:00;;;;;;;;;;;;;;;10.81;59.67;99189.84;4960921;28;19922;-76
2022/12/10 02:57:50;;;;;;;;;;;;;;;10.50;60.52;99204.25;4963885;28;19918;-74
2022/12/10 03:00:40;;;;;;;;;;;;;;;10.37;60.53;99202.75;4981513;28;19918;-75
2022/12/10 03:03:49;;;;;;;;;;;;;;;10.27;61.32;99192.41;4992784;28;20580;-76
2022/12/10 03:06:38;;;;;;;;;;;;;;;10.46;60.79;99189.78;4994157;28;19922;-77
2022/12/10 03:09:26;;;;;;;;;;;;;;;10.70;60.67;99175.19;4983496;28;19918;-74
2022/12/10 03:12:30;;;;;;;;;;;;;;;10.73;59.78;99166.31;4993276;28;19925;-75
2022/12/10 03:15:16;;;;;;;;;;;;;;;10.31;60.67;99166.09;4992952;28;19917;-75
2022/12/10 03:18:03;;;;;;;;;;;;;;;10.14;62.25;99167.22;4976729;28;19917;-75
2022/12/10 03:20:48;;;;;;;;;;;;;;;10.25;61.80;99162.88;4993498;28;19925;-75
2022/12/10 03:23:35;;;;;;;;;;;;;;;10.21;61.59;99167.41;4993634;28;20302;-76
2022/12/10 03:26:21;;;;;;;;;;;;;;;10.16;61.16;99159.53;4984383;28;19925;-77
2022/12/10 03:29:07;;;;;;;;;;;;;;;9.95;62.29;99159.00;4982698;28;19917;-76
2022/12/10 03:31:53;;;;;;;;;;;;;;;9.92;62.88;99169.72;4980295;28;20395;-76
2022/12/10 03:34:37;;;;;;;;;;;;;;;10.24;62.17;99183.03;4993989;28;19917;-75
2022/12/10 03:37:22;;;;;;;;;;;;;;;10.58;62.79;99180.72;4983259;28;19917;-76
2022/12/10 03:40:08;;;;;;;;;;;;;;;10.56;61.53;99178.38;4985564;28;19918;-77
2022/12/10 03:42:53;;;;;;;;;;;;;;;10.44;61.35;99180.41;4980290;28;19926;-77
2022/12/10 03:45:37;;;;;;;;;;;;;;;10.56;62.14;99183.03;4981070;28;19925;-76
2022/12/10 03:48:21;;;;;;;;;;;;;;;10.79;61.44;99180.44;4986596;28;19918;-76
2022/12/10 03:51:06;;;;;;;;;;;;;;;10.90;61.30;99181.47;4979418;28;19918;-76
2022/12/10 03:53:50;;;;;;;;;;;;;;;10.71;60.94;99193.09;4975108;28;19922;-76
2022/12/10 03:56:35;;;;;;;;;;;;;;;10.68;62.29;99204.66;4983429;28;19918;-76
2022/12/10 03:59:19;;;;;;;;;;;;;;;10.55;63.28;99193.09;4992322;28;19918;-76
2022/12/10 04:02:03;;;;;;;;;;;;;;;10.39;62.62;99196.97;4976379;28;19921;-77
2022/12/10 04:04:48;;;;;;;;;;;;;;;10.33;62.92;99196.44;4990291;28;19922;-76
2022/12/10 04:07:33;;;;;;;;;;;;;;;10.20;63.43;99187.59;4979894;28;19918;-76
2022/12/10 04:10:18;;;;;;;;;;;;;;;10.17;63.47;99176.63;4974161;28;19918;-76
2022/12/10 04:19:11;;;;;;;;;;;;;;;10.06;63.73;99161.94;4991691;28;19917;-76
2022/12/10 04:28:02;;;;;;;;;;;;;;;10.03;63.85;99168.09;4996756;28;19918;-76
2022/12/10 04:30:47;;;;;;;;;;;;;;;9.92;64.44;99167.81;4996823;28;19941;-76
2022/12/10 04:33:31;;;;;;;;;;;;;;;9.83;64.18;99162.56;4996283;28;19918;-76
2022/12/10 04:36:15;;;;;;;;;;;;;;;9.74;65.26;99163.84;4975912;28;19918;-76
2022/12/10 04:39:00;;;;;;;;;;;;;;;9.74;65.18;99163.84;4981778;28;19918;-76
2022/12/10 04:41:45;;;;;;;;;;;;;;;9.74;65.01;99166.56;4981026;28;19918;-76
2022/12/10 04:44:30;;;;;;;;;;;;;;;9.69;65.14;99169.53;4993031;28;19918;-76
2022/12/10 04:47:14;;;;;;;;;;;;;;;9.64;65.05;99173.28;4982282;28;19922;-75
2022/12/10 04:49:58;;;;;;;;;;;;;;;9.76;64.82;99161.56;4977089;28;19922;-76
2022/12/10 04:52:43;;;;;;;;;;;;;;;9.54;65.37;99148.56;4984514;28;19917;-76
2022/12/10 04:55:27;;;;;;;;;;;;;;;9.44;66.20;99147.94;4995493;28;19922;-76
2022/12/10 04:58:12;;;;;;;;;;;;;;;9.39;66.31;99147.41;4970028;28;19918;-76
2022/12/10 05:01:03;;;;;;;;;;;;;;;9.47;65.73;99148.38;4965397;28;19918;-76
2022/12/10 05:03:47;;;;;;;;;;;;;;;9.55;65.76;99147.44;4976455;28;19922;-76
2022/12/10 05:06:32;;;;;;;;;;;;;;;9.48;65.91;99141.81;4984232;28;19922;-76
2022/12/10 05:09:17;;;;;;;;;;;;;;;9.58;65.89;99138.59;4984124;28;19918;-76
2022/12/10 05:12:01;;;;;;;;;;;;;;;9.46;65.82;99136.72;4995582;28;19917;-76
2022/12/10 05:14:45;;;;;;;;;;;;;;;9.44;66.13;99122.72;4986228;28;20303;-76
2022/12/10 05:17:30;;;;;;;;;;;;;;;9.44;66.28;99134.38;4977799;28;19918;-76
2022/12/10 05:20:14;;;;;;;;;;;;;;;9.47;66.33;99137.50;4973025;28;20395;-76
2022/12/10 05:26:05;;;;;;;;;;;;;;;9.33;66.70;99133.28;4999901;28;19921;-76
2022/12/10 05:28:51;;;;;;;;;;;;;;;9.28;67.33;99122.69;4967954;28;19918;-76
2022/12/10 05:31:36;;;;;;;;;;;;;;;9.25;67.14;99114.44;5003962;28;19918;-75
2022/12/10 05:34:20;;;;;;;;;;;;;;;9.51;66.58;99122.91;4976016;28;19918;-76
2022/12/10 05:37:05;;;;;;;;;;;;;;;9.62;66.10;99126.69;4987669;28;20318;-76
2022/12/10 05:39:49;;;;;;;;;;;;;;;9.62;66.19;99121.28;4982031;28;19917;-76
2022/12/10 05:42:33;;;;;;;;;;;;;;;9.63;66.27;99131.00;4995096;28;19918;-75
2022/12/10 05:45:18;;;;;;;;;;;;;;;9.52;66.05;99118.28;4981572;28;19940;-76
2022/12/10 05:48:02;;;;;;;;;;;;;;;9.47;66.49;99115.81;4994152;28;19917;-76
2022/12/10 05:50:47;;;;;;;;;;;;;;;9.54;66.10;99121.44;4994693;28;19917;-75
2022/12/10 05:53:31;;;;;;;;;;;;;;;9.66;66.36;99124.06;4988325;28;19926;-76
2022/12/10 05:56:18;;;;;;;;;;;;;;;9.53;66.71;99119.84;4971376;28;20315;-76
2022/12/10 05:59:02;;;;;;;;;;;;;;;9.48;67.16;99122.81;4987473;28;19918;-76
2022/12/10 06:01:47;;;;;;;;;;;;;;;9.53;67.02;99109.00;4982315;28;19918;-76
2022/12/10 06:04:31;;;;;;;;;;;;;;;9.47;66.94;99115.81;4972158;28;19926;-76
2022/12/10 06:07:15;;;;;;;;;;;;;;;9.53;66.61;99114.44;4993023;28;19922;-76
2022/12/10 06:10:00;;;;;;;;;;;;;;;9.54;66.83;99114.09;4975751;28;19918;-76
2022/12/10 06:12:44;;;;;;;;;;;;;;;9.53;66.56;99106.28;4994617;28;20322;-76
2022/12/10 06:15:29;;;;;;;;;;;;;;;9.70;66.51;99103.25;4981915;28;19918;-75
2022/12/10 06:18:14;;;;;;;;;;;;;;;9.76;67.39;99104.56;4979788;28;19926;-76
2022/12/10 06:20:58;;;;;;;;;;;;;;;9.70;66.60;99108.69;4985930;28;20405;-76
2022/12/10 06:23:43;;;;;;;;;;;;;;;9.68;66.83;99105.53;4984551;28;19918;-76
2022/12/10 06:26:27;;;;;;;;;;;;;;;9.65;66.30;99101.56;4988007;28;19922;-78
2022/12/10 06:29:15;;;;;;;;;;;;;;;9.60;66.41;99099.09;4989550;28;19922;-75
2022/12/10 06:31:59;;;;;;;;;;;;;;;9.61;66.77;99103.41;4978750;28;19917;-77
2022/12/10 06:34:44;;;;;;;;;;;;;;;9.55;66.47;99107.50;4964305;28;19919;-74
2022/12/10 06:37:28;;;;;;;;;;;;;;;9.51;66.85;99111.25;4974553;28;19917;-75
2022/12/10 06:40:13;;;;;;;;;;;;;;;9.61;66.74;99116.19;4990727;28;19917;-75
2022/12/10 06:42:57;;;;;;;;;;;;;;;9.56;66.21;99124.56;4985957;28;20170;-74
2022/12/10 06:45:42;;;;;;;;;;;;;;;9.39;67.09;99120.28;4987174;28;19922;-74
2022/12/10 06:48:26;;;;;;;;;;;;;;;9.39;67.17;99123.78;4974854;28;19918;-75
2022/12/10 06:51:11;;;;;;;;;;;;;;;9.53;66.87;99119.84;4984073;28;19918;-75
2022/12/10 06:53:56;;;;;;;;;;;;;;;9.51;67.20;99120.19;4985811;28;19918;-74
2022/12/10 06:56:43;;;;;;;;;;;;;;;9.37;67.42;99123.31;4972727;28;21747;-75
2022/12/10 06:59:27;;;;;;;;;;;;;;;9.39;67.57;99125.69;4985356;28;19918;-76
2022/12/10 07:02:11;;;;;;;;;;;;;;;9.53;68.22;99147.00;4989937;28;20565;-76
2022/12/10 07:04:56;;;;;;;;;;;;;;;9.61;67.36;99143.31;4994150;28;19918;-77
2022/12/10 07:07:41;;;;;;;;;;;;;;;10.32;66.37;99145.94;4974901;28;19922;-74
2022/12/10 07:10:25;;;;;;;;;;;;;;;9.98;65.81;99146.63;4989286;28;19918;-75
2022/12/10 07:13:09;;;;;;;;;;;;;;;9.80;66.15;99135.31;4983742;28;19918;-74
2022/12/10 07:15:54;;;;;;;;;;;;;;;9.72;66.72;99147.13;4982787;28;20303;-74
2022/12/10 07:18:38;;;;;;;;;;;;;;;9.97;69.67;99159.41;4973348;28;19925;-74
2022/12/10 07:21:25;;;;;;;;;;;;;;;10.02;66.22;99159.16;4983288;28;19918;-75
2022/12/10 07:24:10;;;;;;;;;;;;;;;9.85;66.40;99154.84;4989769;28;19918;-75
2022/12/10 07:26:55;;;;;;;;;;;;;;;9.70;67.11;99146.69;4987528;28;20317;-75
2022/12/10 07:29:39;;;;;;;;;;;;;;;9.64;67.33;99150.78;4979065;28;19917;-75
2022/12/10 07:32:24;;;;;;;;;;;;;;;9.50;67.54;99150.41;4993064;28;19918;-74
2022/12/10 07:35:08;;;;;;;;;;;;;;;9.48;67.72;99152.66;4993723;28;19941;-77
2022/12/10 07:37:53;;;;;;;;;;;;;;;9.50;68.46;99158.53;4977686;28;19922;-77
2022/12/10 07:40:37;;;;;;;;;;;;;;;9.45;68.20;99154.13;4969340;28;19918;-76
2022/12/10 07:43:21;;;;;;;;;;;;;;;9.78;71.37;99154.66;4974285;28;19921;-74
2022/12/10 07:46:11;;;;;;;;;;;;;;;9.61;68.00;99165.03;4988666;28;20387;-75
2022/12/10 07:48:55;;;;;;;;;;;;;;;9.53;68.47;99155.13;4979657;28;19918;-74
2022/12/10 07:51:43;;;;;;;;;;;;;;;9.53;68.22;99155.13;4970630;28;19918;-75
2022/12/10 07:54:28;;;;;;;;;;;;;;;9.80;68.13;99146.19;4987500;28;19922;-74
2022/12/10 07:57:14;;;;;;;;;;;;;;;9.86;67.91;99151.00;4987032;28;19918;-76
2022/12/10 07:59:58;;;;;;;;;;;;;;;9.90;68.04;99150.31;4988432;28;19928;-76
2022/12/10 08:02:43;;;;;;;;;;;;;;;9.71;67.70;99154.47;4984094;28;19917;-75
2022/12/10 08:05:27;;;;;;;;;;;;;;;9.77;67.36;99147.66;4966778;28;20383;-74
2022/12/10 08:08:12;;;;;;;;;;;;;;;9.62;67.92;99134.84;4974266;28;19918;-73
2022/12/10 08:10:59;;;;;;;;;;;;;;;9.70;69.25;99130.41;4972267;28;20403;-77
2022/12/10 08:13:44;;;;;;;;;;;;;;;9.82;69.29;99135.75;4977909;28;19918;-72
2022/12/10 08:16:29;;;;;;;;;;;;;;;9.67;67.69;99137.31;4992492;28;19918;-77
2022/12/10 08:19:13;;;;;;;;;;;;;;;9.65;68.09;99144.22;4980116;28;19918;-74
2022/12/10 08:21:58;;;;;;;;;;;;;;;9.88;72.17;99137.06;4978202;28;19918;-74
2022/12/10 08:24:42;;;;;;;;;;;;;;;9.82;67.62;99131.09;4981274;28;19917;-75
2022/12/10 08:27:27;;;;;;;;;;;;;;;9.76;67.74;99123.56;4982214;28;19922;-77
2022/12/10 08:30:12;;;;;;;;;;;;;;;9.63;68.10;99125.56;4993460;28;19918;-77
2022/12/10 08:32:56;;;;;;;;;;;;;;;9.60;68.84;99130.91;4983445;28;19918;-76
2022/12/10 08:35:41;;;;;;;;;;;;;;;9.78;69.14;99122.09;4979933;28;19918;-76
2022/12/10 08:38:25;;;;;;;;;;;;;;;10.07;70.93;99136.38;4969757;28;19918;-77
2022/12/10 08:41:11;;;;;;;;;;;;;;;9.90;67.59;99137.53;4967189;28;19918;-76
2022/12/10 08:43:56;;;;;;;;;;;;;;;9.91;67.62;99138.28;4984201;28;19918;-76
2022/12/10 08:46:40;;;;;;;;;;;;;;;9.79;68.10;99150.81;4992505;28;20390;-75
2022/12/10 08:49:25;;;;;;;;;;;;;;;9.76;68.22;99145.28;4985140;28;19918;-76
2022/12/10 08:52:09;;;;;;;;;;;;;;;9.68;68.20;99157.88;4993523;28;19922;-76
2022/12/10 08:54:53;;;;;;;;;;;;;;;9.63;68.40;99152.72;4993337;28;19922;-76
2022/12/10 08:57:37;;;;;;;;;;;;;;;9.66;68.75;99146.56;4985786;28;19922;-76
2022/12/10 09:00:22;;;;;;;;;;;;;;;9.74;68.55;99153.78;4979088;28;19918;-76
2022/12/10 09:03:08;;;;;;;;;;;;;;;9.78;68.22;99153.88;4983698;28;19918;-76
2022/12/10 09:05:53;;;;;;;;;;;;;;;9.62;68.97;99151.13;4978775;28;20307;-76
2022/12/10 09:08:38;;;;;;;;;;;;;;;9.62;69.40;99150.34;4996115;28;19918;-76
2022/12/10 09:11:27;;;;;;;;;;;;;;;9.61;69.04;99143.31;4984540;28;19918;-76
2022/12/10 09:14:12;;;;;;;;;;;;;;;9.63;69.23;99151.91;4988170;28;20399;-76
2022/12/10 09:16:57;;;;;;;;;;;;;;;9.67;69.17;99147.38;4988297;28;19918;-74
2022/12/10 09:19:41;;;;;;;;;;;;;;;9.70;69.17;99154.84;4988477;28;19918;-76
2022/12/10 09:22:25;;;;;;;;;;;;;;;9.65;69.60;99155.09;4985961;28;19926;-76
2022/12/10 09:25:10;;;;;;;;;;;;;;;9.72;69.18;99147.91;4975781;28;19917;-76
2022/12/10 09:27:54;;;;;;;;;;;;;;;9.75;69.14;99151.88;4974792;28;19922;-74
2022/12/10 09:30:39;;;;;;;;;;;;;;;9.76;68.76;99148.78;4987953;28;19921;-76
2022/12/10 09:33:23;;;;;;;;;;;;;;;9.71;69.33;99153.66;4979920;28;19917;-78
2022/12/10 09:36:09;;;;;;;;;;;;;;;9.67;69.47;99152.78;4978726;28;19918;-75
2022/12/10 09:38:54;;;;;;;;;;;;;;;9.64;69.70;99148.06;4964930;28;19918;-76
2022/12/10 09:41:57;;;;;;;;;;;;;;;9.61;69.80;99144.13;4976704;28;19921;-78
2022/12/10 09:44:47;;;;;;;;;;;;;;;9.59;69.80;99137.47;4975565;28;19918;-76
2022/12/10 09:47:38;;;;;;;;;;;;;;;9.59;70.26;99135.53;4969307;28;19926;-74
2022/12/10 09:50:29;;;;;;;;;;;;;;;9.61;70.07;99132.47;4984639;28;20390;-74
2022/12/10 09:53:17;;;;;;;;;;;;;;;9.61;70.19;99129.75;4985058;28;19917;-73
2022/12/10 09:56:02;;;;;;;;;;;;;;;9.60;70.21;99134.38;4980850;28;19918;-75
2022/12/10 09:58:47;;;;;;;;;;;;;;;9.60;70.48;99128.97;4987969;28;19921;-75
2022/12/10 10:01:32;;;;;;;;;;;;;;;9.64;70.50;99120.94;4985344;28;19925;-76
2022/12/10 10:04:17;;;;;;;;;;;;;;;9.72;70.80;99117.25;4985262;28;19918;-77
2022/12/10 10:07:04;;;;;;;;;;;;;;;9.76;69.97;99112.69;4973896;28;19941;-75
2022/12/10 10:09:50;;;;;;;;;;;;;;;9.85;69.97;99105.22;4988488;28;19922;-74
2022/12/10 10:12:35;;;;;;;;;;;;;;;10.10;70.38;99101.19;4978703;28;19922;-75
2022/12/10 10:15:23;;;;;;;;;;;;;;;10.16;68.47;99093.56;4986661;28;19921;-77
2022/12/10 10:18:08;;;;;;;;;;;;;;;10.16;68.63;99094.34;4995147;28;19917;-75
2022/12/10 10:20:52;;;;;;;;;;;;;;;10.93;68.66;99089.06;4988536;28;19922;-77
2022/12/10 10:23:37;;;;;;;;;;;;;;;11.06;65.62;99084.31;4975079;28;19918;-78
2022/12/10 10:26:23;;;;;;;;;;;;;;;11.96;64.26;99091.84;4966859;28;19922;-74
2022/12/10 10:29:11;;;;;;;;;;;;;;;12.64;63.02;99071.84;4979717;28;19918;-77
2022/12/10 10:32:15;;;;;;;;;;;;;;;13.04;62.03;99070.41;4991752;28;20166;-76
2022/12/10 10:34:59;;;;;;;;;;;;;;;12.78;61.26;99063.06;4976620;28;19921;-77
2022/12/10 10:37:44;;;;;;;;;;;;;;;12.78;61.01;99058.41;4994888;28;19918;-77
2022/12/10 10:40:38;;;;;;;;;;;;;;;12.24;61.71;99047.88;4993882;28;19921;-77
2022/12/10 10:43:25;;;;;;;;;;;;;;;11.77;62.69;99044.81;4985239;28;19918;-76
2022/12/10 10:46:14;;;;;;;;;;;;;;;11.43;63.76;99041.06;4977475;28;19922;-77
2022/12/10 10:49:12;;;;;;;;;;;;;;;11.08;64.54;99031.09;4982235;28;19922;-78
2022/12/10 10:52:20;;;;;;;;;;;;;;;10.92;65.97;99026.91;4977756;28;19918;-78
2022/12/10 10:55:05;;;;;;;;;;;;;;;10.70;67.15;99020.25;4975281;28;19918;-77
2022/12/10 10:57:51;;;;;;;;;;;;;;;10.61;67.34;99023.19;4975887;28;19918;-78
2022/12/10 11:00:36;;;;;;;;;;;;;;;10.58;67.56;99023.09;4966274;28;19918;-76
2022/12/10 11:03:20;;;;;;;;;;;;;;;10.48;68.47;99013.56;4978994;28;20382;-78
2022/12/10 11:06:07;;;;;;;;;;;;;;;10.39;69.01;99014.91;4988151;28;19921;-78
2022/12/10 11:08:56;;;;;;;;;;;;;;;10.33;69.63;99003.53;4984781;28;19918;-77
2022/12/10 11:11:40;;;;;;;;;;;;;;;10.48;69.15;99010.06;4994581;28;19918;-76
2022/12/10 11:14:25;;;;;;;;;;;;;;;10.44;69.72;99004.56;4962331;28;19918;-77
2022/12/10 11:17:10;;;;;;;;;;;;;;;10.50;69.94;99005.06;4975497;28;19922;-77
2022/12/10 11:20:13;;;;;;;;;;;;;;;10.38;69.84;99002.47;4981531;28;19918;-77
2022/12/10 11:22:59;;;;;;;;;;;;;;;10.35;70.01;99003.19;4968084;28;19918;-77
2022/12/10 11:25:56;;;;;;;;;;;;;;;10.82;70.39;99003.78;4975194;28;20306;-77
2022/12/10 11:29:00;;;;;;;;;;;;;;;11.20;68.23;99000.25;4992741;28;19922;-77
2022/12/10 11:31:51;;;;;;;;;;;;;;;11.49;66.80;98996.06;4985688;28;20383;-77
2022/12/10 11:34:54;;;;;;;;;;;;;;;11.59;65.95;98992.75;4983900;28;19917;-79
2022/12/10 11:37:57;;;;;;;;;;;;;;;11.90;65.66;98995.22;4985541;28;19918;-78
2022/12/10 11:40:41;;;;;;;;;;;;;;;12.16;64.22;98988.22;4975780;28;20380;-78
2022/12/10 11:43:43;;;;;;;;;;;;;;;12.13;63.70;98995.19;4978062;28;19917;-77
2022/12/10 11:46:42;;;;;;;;;;;;;;;12.30;64.38;98989.19;4974882;28;19922;-76
2022/12/10 11:49:35;;;;;;;;;;;;;;;12.27;64.65;98978.25;4978555;28;19926;-76
2022/12/10 11:52:35;;;;;;;;;;;;;;;12.36;65.17;98974.09;4978513;28;19922;-76
2022/12/10 11:55:23;;;;;;;;;;;;;;;12.20;65.22;98967.25;4982787;28;19918;-74
2022/12/10 11:58:37;;;;;;;;;;;;;;;12.55;63.90;98975.09;4990858;28;19918;-77
2022/12/10 12:01:32;;;;;;;;;;;;;;;12.53;65.33;98974.69;4984481;28;19917;-75
2022/12/10 12:04:16;;;;;;;;;;;;;;;12.80;65.10;98970.72;4986401;28;19918;-77
2022/12/10 12:07:16;;;;;;;;;;;;;;;12.92;64.53;98964.22;4967511;28;19922;-77
2022/12/10 12:10:11;;;;;;;;;;;;;;;12.85;64.16;98957.53;4985755;28;19917;-77
2022/12/10 12:13:05;;;;;;;;;;;;;;;12.80;64.00;98948.91;4969559;28;19918;-77
2022/12/10 12:15:52;;;;;;;;;;;;;;;12.98;65.26;98949.88;4992579;28;19918;-75
2022/12/10 12:18:43;;;;;;;;;;;;;;;13.06;64.38;98943.34;4984131;28;20387;-75
2022/12/10 12:21:28;;;;;;;;;;;;;;;13.02;63.20;98933.53;4983611;28;19918;-75
2022/12/10 12:24:32;;;;;;;;;;;;;;;13.18;64.37;98934.91;4977956;28;20370;-77
2022/12/10 12:27:26;;;;;;;;;;;;;;;13.30;62.88;98925.69;4974723;28;19921;-77
2022/12/10 12:30:17;;;;;;;;;;;;;;;13.07;62.36;98925.81;4984838;28;19918;-76
2022/12/10 12:33:07;;;;;;;;;;;;;;;12.93;62.79;98922.94;4982942;28;19918;-78
2022/12/10 12:36:02;;;;;;;;;;;;;;;13.25;63.64;98920.56;4985765;28;19918;-76
2022/12/10 12:38:50;;;;;;;;;;;;;;;13.05;64.17;98922.69;4992501;28;19918;-77
2022/12/10 12:41:34;;;;;;;;;;;;;;;13.30;62.55;98917.47;4969941;28;19921;-75
2022/12/10 12:44:24;;;;;;;;;;;;;;;12.84;62.81;98912.34;4985147;28;20395;-75
2022/12/10 12:47:38;;;;;;;;;;;;;;;12.74;64.35;98907.56;4976878;28;19934;-75
2022/12/10 12:50:25;;;;;;;;;;;;;;;12.41;63.31;98902.91;4971326;28;19921;-77
2022/12/10 12:53:19;;;;;;;;;;;;;;;11.80;65.70;98903.25;4982177;28;19918;-78
2022/12/10 12:56:22;;;;;;;;;;;;;;;11.34;67.37;98890.84;4990092;28;19922;-76
2022/12/10 12:59:30;;;;;;;;;;;;;;;11.21;67.92;98887.53;4973042;28;19922;-77
2022/12/10 13:02:14;;;;;;;;;;;;;;;11.32;68.40;98887.72;4986953;28;19918;-75
2022/12/10 13:05:00;;;;;;;;;;;;;;;11.08;68.79;98884.22;4990059;28;20390;-76
2022/12/10 13:08:05;;;;;;;;;;;;;;;11.33;71.20;98892.78;4977071;28;20406;-75
2022/12/10 13:10:49;;;;;;;;;;;;;;;12.61;69.94;98889.09;4981293;28;20314;-75
2022/12/10 13:13:35;;;;;;;;;;;;;;;12.61;64.74;98886.34;4971477;28;19921;-76
2022/12/10 13:16:44;;;;;;;;;;;;;;;13.06;65.80;98893.44;4990662;28;19917;-78
2022/12/10 13:19:30;;;;;;;;;;;;;;;13.31;63.75;98880.81;4987317;28;19925;-76
2022/12/10 13:22:33;;;;;;;;;;;;;;;13.62;63.97;98871.28;4986596;28;19917;-75
2022/12/10 13:25:18;;;;;;;;;;;;;;;13.89;64.03;98872.63;4981038;28;19918;-77
2022/12/10 13:28:21;;;;;;;;;;;;;;;14.30;64.31;98883.38;4964727;28;19926;-77
2022/12/10 13:31:15;;;;;;;;;;;;;;;15.17;62.15;98884.78;4977669;28;19918;-78
2022/12/10 13:33:59;;;;;;;;;;;;;;;15.71;60.16;98880.06;4990352;28;19922;-77
2022/12/10 13:36:47;;;;;;;;;;;;;;;15.93;59.08;98884.34;4981503;28;20331;-77
2022/12/10 13:39:36;;;;;;;;;;;;;;;15.33;55.93;98871.50;4988902;28;19926;-80
2022/12/10 13:45:30;;;;;;;;;;;;;;;14.59;61.10;98885.06;4986026;28;19918;-77
2022/12/10 13:48:16;;;;;;;;;;;;;;;14.10;59.38;98885.63;4990311;28;20387;-78
2022/12/10 13:51:12;;;;;;;;;;;;;;;13.64;58.66;98880.69;4983322;28;19918;-77
2022/12/10 13:54:04;;;;;;;;;;;;;;;13.27;60.66;98885.47;4988967;28;19918;-78
2022/12/10 13:57:01;;;;;;;;;;;;;;;12.65;61.53;98887.97;4988991;28;19922;-78
2022/12/10 14:00:04;;;;;;;;;;;;;;;12.20;63.23;98890.94;4988057;28;19922;-77
2022/12/10 14:03:12;;;;;;;;;;;;;;;11.76;64.83;98891.53;4986042;28;19918;-76
2022/12/10 14:06:00;;;;;;;;;;;;;;;11.46;66.29;98887.94;4977117;28;19918;-76
2022/12/10 14:08:54;;;;;;;;;;;;;;;11.36;66.96;98894.00;4993018;28;19922;-76
2022/12/10 14:11:42;;;;;;;;;;;;;;;11.18;67.14;98885.53;4994596;28;19918;-75
2022/12/10 14:14:36;;;;;;;;;;;;;;;11.06;67.97;98886.53;4980877;28;19918;-74
2022/12/10 14:17:24;;;;;;;;;;;;;;;10.99;68.32;98878.25;4989421;28;19922;-76
2022/12/10 14:20:14;;;;;;;;;;;;;;;10.98;68.65;98873.94;4990497;28;19918;-75
2022/12/10 14:26:14;;;;;;;;;;;;;;;10.88;68.77;98873.75;4988956;28;19918;-75
2022/12/10 14:29:00;;;;;;;;;;;;;;;10.94;68.73;98873.09;4975832;28;20394;-76
2022/12/10 14:31:47;;;;;;;;;;;;;;;10.84;69.27;98879.13;4993964;28;19917;-75
2022/12/10 14:34:31;;;;;;;;;;;;;;;10.81;69.14;98884.53;4967868;28;19918;-77
2022/12/10 14:37:16;;;;;;;;;;;;;;;10.72;69.14;98892.88;4987282;28;19918;-77
2022/12/10 14:40:03;;;;;;;;;;;;;;;10.63;69.77;98893.13;4986698;28;20331;-76
2022/12/10 14:42:49;;;;;;;;;;;;;;;10.76;69.72;98893.75;4987966;28;19917;-77
2022/12/10 14:45:41;;;;;;;;;;;;;;;10.79;68.74;98901.19;4991285;28;19917;-77
2022/12/10 14:48:25;;;;;;;;;;;;;;;10.68;69.14;98905.63;4972903;28;20319;-77
2022/12/10 14:51:14;;;;;;;;;;;;;;;10.59;69.07;98892.28;4971677;28;19918;-78
2022/12/10 14:53:58;;;;;;;;;;;;;;;10.57;69.38;98904.63;4981237;28;19918;-79
2022/12/10 14:56:43;;;;;;;;;;;;;;;10.52;69.84;98904.94;4991277;28;19922;-79
2022/12/10 14:59:43;;;;;;;;;;;;;;;10.46;69.58;98901.75;4985931;28;19918;-78